Time;durP1;ratioP1;P1;durP2;ratioP2;P2;SDS_P1;SDS_P2;PMS_P1;PMS_P2;Temp;Humidity;BMP_temperature;BMP_pressure;BME280_temperature;BME280_humidity;BME280_pressure;Samples;Min_cycle;Max_cycle;Signal;HPM_P1;HPM_P2
2022/12/13 00:01:56;;;;;;;53.70;20.35;;;-2.40;81.90;;;;;;9176123;19;20029;-68
2022/12/13 00:05:00;;;;;;;52.55;20.90;;;-2.50;81.80;;;;;;9176676;19;20030;-66
2022/12/13 00:08:04;;;;;;;54.05;21.63;;;-2.50;81.80;;;;;;9173719;19;20038;-66
2022/12/13 00:11:11;;;;;;;53.83;19.98;;;-2.50;81.90;;;;;;9177411;19;20014;-67
2022/12/13 00:14:15;;;;;;;52.95;20.95;;;-2.50;81.90;;;;;;9175411;19;20111;-67
2022/12/13 00:17:20;;;;;;;56.10;20.30;;;-2.50;81.80;;;;;;9176693;19;20440;-69
2022/12/13 00:20:24;;;;;;;54.17;18.85;;;-2.50;81.90;;;;;;9176617;19;20014;-68
2022/12/13 00:23:30;;;;;;;45.85;19.55;;;-2.50;81.80;;;;;;9176898;19;20077;-67
2022/12/13 00:26:34;;;;;;;49.03;20.30;;;-2.50;81.80;;;;;;9176225;19;20530;-68
2022/12/13 00:29:37;;;;;;;55.03;20.30;;;-2.50;81.80;;;;;;9176759;19;20050;-68
2022/12/13 00:32:43;;;;;;;52.60;20.08;;;-2.50;81.80;;;;;;9176535;19;20018;-68
2022/12/13 00:35:47;;;;;;;54.58;21.77;;;-2.60;81.80;;;;;;9173248;19;20486;-68
2022/12/13 00:38:59;;;;;;;;;;;-2.60;81.90;;;;;;9177206;19;20492;-66
2022/12/13 00:42:03;;;;;;;61.55;21.45;;;-2.60;81.80;;;;;;9173540;19;19923;-69
2022/12/13 00:45:08;;;;;;;58.08;22.20;;;-2.60;81.80;;;;;;9174581;19;20022;-68
2022/12/13 00:48:14;;;;;;;56.00;21.30;;;-2.60;81.90;;;;;;9175000;19;20059;-67
2022/12/13 00:51:17;;;;;;;55.78;23.00;;;-2.70;81.80;;;;;;9172099;19;20015;-67
2022/12/13 00:54:21;;;;;;;53.25;21.20;;;-2.70;81.80;;;;;;9168643;19;20023;-68
2022/12/13 00:57:25;;;;;;;61.85;22.58;;;-2.70;81.80;;;;;;9175620;19;20483;-68
2022/12/13 01:00:29;;;;;;;58.42;21.73;;;-2.70;81.80;;;;;;9172619;19;20022;-68
2022/12/13 01:03:34;;;;;;;58.03;21.90;;;-2.70;81.80;;;;;;9175494;19;20014;-66
2022/12/13 01:06:41;;;;;;;56.60;22.73;;;-2.70;81.90;;;;;;9182941;19;20026;-67
2022/12/13 01:09:44;;;;;;;68.65;22.38;;;-2.70;81.80;;;;;;9180941;19;20018;-67
2022/12/13 01:12:48;;;;;;;68.40;21.75;;;-2.70;81.90;;;;;;9182377;19;20475;-68
2022/12/13 01:15:52;;;;;;;58.65;22.80;;;-2.70;81.90;;;;;;9180951;19;20834;-66
2022/12/13 01:18:58;;;;;;;57.65;22.65;;;-2.70;81.80;;;;;;9183541;19;20030;-69
2022/12/13 01:22:04;;;;;;;62.90;21.83;;;-2.80;81.80;;;;;;9181860;19;20022;-68
2022/12/13 01:25:09;;;;;;;63.92;23.25;;;-2.80;81.80;;;;;;9180605;19;20406;-69
2022/12/13 01:28:12;;;;;;;64.43;22.17;;;-2.80;81.80;;;;;;9182876;19;20384;-69
2022/12/13 01:31:18;;;;;;;63.85;23.05;;;-2.80;81.80;;;;;;9181061;19;20998;-67
2022/12/13 01:34:26;;;;;;;60.38;22.27;;;-2.80;81.80;;;;;;9181624;19;20516;-67
2022/12/13 01:37:30;;;;;;;71.53;22.65;;;-2.80;81.80;;;;;;9182039;19;20117;-68
2022/12/13 01:40:33;;;;;;;72.63;23.70;;;-2.80;81.80;;;;;;9182127;19;20019;-67
2022/12/13 01:44:02;;;;;;;57.08;23.05;;;-2.90;81.70;;;;;;9181749;19;20086;-67
2022/12/13 01:47:05;;;;;;;;;;;-2.90;81.70;;;;;;9181043;19;20018;-67
2022/12/13 01:50:16;;;;;;;62.83;22.98;;;-2.90;81.80;;;;;;9182649;19;19919;-67
2022/12/13 01:53:23;;;;;;;63.53;23.75;;;-2.90;81.70;;;;;;9176342;19;20024;-67
2022/12/13 01:56:31;;;;;;;63.53;23.50;;;-2.90;81.70;;;;;;9178120;19;20046;-68
2022/12/13 01:59:37;;;;;;;58.60;22.00;;;-2.90;81.80;;;;;;9178846;19;20022;-68
2022/12/13 02:02:41;;;;;;;58.85;24.17;;;-3.00;81.70;;;;;;9179771;19;20019;-67
2022/12/13 02:05:54;;;;;;;58.97;21.63;;;-2.90;81.70;;;;;;9180913;19;20018;-67
2022/12/13 02:08:58;;;;;;;57.08;21.65;;;-2.90;81.70;;;;;;9178585;19;20027;-67
2022/12/13 02:12:03;;;;;;;58.75;24.10;;;-3.00;81.80;;;;;;9181108;19;20019;-67
2022/12/13 02:15:11;;;;;;;63.38;23.15;;;-3.00;81.70;;;;;;9176859;19;20362;-68
2022/12/13 02:18:27;;;;;;;58.25;21.63;;;-3.00;81.80;;;;;;9178662;19;20048;-68
2022/12/13 02:21:41;;;;;;;67.63;22.13;;;-3.00;81.70;;;;;;9180970;19;20082;-69
2022/12/13 02:24:56;;;;;;;59.78;23.45;;;-3.00;81.80;;;;;;9180504;19;20037;-68
2022/12/13 02:28:11;;;;;;;58.03;23.30;;;-3.00;81.70;;;;;;9178684;19;20475;-67
2022/12/13 02:31:47;;;;;;;57.50;23.63;;;-3.00;81.70;;;;;;9178693;19;20347;-68
2022/12/13 02:34:57;;;;;;;51.40;21.92;;;-3.10;81.70;;;;;;9179178;19;20043;-67
2022/12/13 02:38:05;;;;;;;61.92;23.48;;;-3.10;81.70;;;;;;9179834;19;20018;-67
2022/12/13 02:41:17;;;;;;;57.53;23.50;;;-3.10;81.70;;;;;;9179255;19;20014;-67
2022/12/13 02:44:26;;;;;;;54.53;20.73;;;-3.10;81.70;;;;;;9179039;19;20025;-68
2022/12/13 02:47:34;;;;;;;65.05;22.33;;;-3.10;82.30;;;;;;9179628;19;20035;-67
2022/12/13 02:50:38;;;;;;;63.70;22.50;;;-3.10;81.70;;;;;;9177454;19;20014;-67
2022/12/13 02:53:43;;;;;;;55.45;21.50;;;-3.10;81.70;;;;;;9173416;19;20539;-67
2022/12/13 02:56:55;;;;;;;66.07;22.13;;;-3.10;81.70;;;;;;9173977;19;20018;-67
2022/12/13 03:00:02;;;;;;;58.85;22.25;;;-3.20;81.60;;;;;;9179503;19;20026;-68
2022/12/13 03:03:18;;;;;;;58.30;21.38;;;-3.20;81.70;;;;;;9179694;19;20019;-67
2022/12/13 03:06:33;;;;;;;62.53;21.50;;;-3.20;81.70;;;;;;9179190;19;20026;-66
2022/12/13 03:09:48;;;;;;;65.90;23.15;;;-3.20;81.70;;;;;;9179691;19;20105;-67
2022/12/13 03:16:21;;;;;;;56.65;22.10;;;-3.20;81.70;;;;;;9176211;19;20058;-68
2022/12/13 03:19:28;;;;;;;59.50;22.75;;;-3.20;81.70;;;;;;9178556;19;20038;-68
2022/12/13 03:22:35;;;;;;;58.78;23.75;;;-3.30;81.60;;;;;;9177256;19;20022;-66
2022/12/13 03:25:39;;;;;;;54.28;21.88;;;-3.20;81.60;;;;;;9175877;19;20018;-68
2022/12/13 03:28:42;;;;;;;58.83;21.55;;;-3.20;82.30;;;;;;9178760;19;20023;-65
2022/12/13 03:31:47;;;;;;;60.72;20.23;;;-3.30;81.60;;;;;;9179436;19;20021;-67
2022/12/13 03:34:53;;;;;;;50.17;20.45;;;-3.30;81.60;;;;;;9177126;19;20023;-67
2022/12/13 03:38:04;;;;;;;51.35;21.13;;;-3.30;81.60;;;;;;9176205;19;20016;-65
2022/12/13 03:41:12;;;;;;;53.58;20.67;;;-3.30;81.60;;;;;;9178399;19;20038;-68
2022/12/13 03:44:16;;;;;;;64.25;22.02;;;-3.30;81.60;;;;;;9177513;19;20021;-68
2022/12/13 03:47:20;;;;;;;53.78;20.35;;;-3.30;81.60;;;;;;9177974;19;20014;-66
2022/12/13 03:50:26;;;;;;;50.65;19.05;;;-3.30;81.60;;;;;;9175330;19;20033;-68
2022/12/13 03:53:31;;;;;;;55.63;21.52;;;-3.40;81.60;;;;;;9172150;19;20475;-67
2022/12/13 03:56:37;;;;;;;57.55;20.77;;;-3.40;81.60;;;;;;9173649;19;20038;-68
2022/12/13 03:59:41;;;;;;;55.38;20.52;;;-3.40;81.60;;;;;;9177210;19;20345;-65
2022/12/13 04:02:45;;;;;;;58.55;20.13;;;-3.40;81.60;;;;;;9177506;19;20018;-68
2022/12/13 04:05:50;;;;;;;53.58;21.00;;;-3.40;81.60;;;;;;9177023;19;20018;-66
2022/12/13 04:08:54;;;;;;;66.40;20.98;;;-3.40;81.60;;;;;;9177326;19;20309;-67
2022/12/13 04:15:15;;;;;;;57.25;21.55;;;-3.50;81.50;;;;;;9174790;19;20022;-67
2022/12/13 04:18:20;;;;;;;61.55;22.65;;;-3.50;81.50;;;;;;9174813;19;20018;-67
2022/12/13 04:21:26;;;;;;;54.55;21.63;;;-3.50;81.50;;;;;;9174586;19;20011;-67
2022/12/13 04:24:31;;;;;;;51.15;21.55;;;-3.50;81.50;;;;;;9175088;19;20043;-67
2022/12/13 04:27:36;;;;;;;56.05;20.55;;;-3.50;81.60;;;;;;9176907;19;20022;-67
2022/12/13 04:30:40;;;;;;;62.95;21.45;;;-3.50;81.60;;;;;;9176928;19;20046;-68
2022/12/13 04:33:44;;;;;;;56.92;21.85;;;-3.50;81.50;;;;;;9176474;19;20030;-69
2022/12/13 04:36:50;;;;;;;66.97;24.08;;;-3.50;81.50;;;;;;9171457;19;20029;-66
2022/12/13 04:39:53;;;;;;;63.63;22.67;;;-3.50;81.50;;;;;;9176652;19;20483;-66
2022/12/13 04:43:04;;;;;;;60.22;22.13;;;-3.50;81.50;;;;;;9176225;19;20450;-66
2022/12/13 04:46:08;;;;;;;52.30;21.15;;;-3.60;81.50;;;;;;9175703;19;20021;-66
2022/12/13 04:49:11;;;;;;;61.80;20.55;;;-3.60;81.50;;;;;;9174347;19;20099;-67
2022/12/13 04:52:17;;;;;;;60.40;22.30;;;-3.60;81.50;;;;;;9168332;19;21277;-66
2022/12/13 04:55:26;;;;;;;61.05;22.42;;;-3.60;81.50;;;;;;9171697;19;20014;-65
2022/12/13 04:58:29;;;;;;;58.20;21.55;;;-3.60;81.50;;;;;;9174873;19;20038;-66
2022/12/13 05:01:33;;;;;;;55.60;20.45;;;-3.60;81.50;;;;;;9173889;19;20463;-66
2022/12/13 05:04:37;;;;;;;64.45;22.77;;;-3.70;81.50;;;;;;9174384;19;20019;-64
2022/12/13 05:07:42;;;;;;;58.33;22.23;;;-3.60;81.50;;;;;;9174501;19;20052;-67
2022/12/13 05:10:46;;;;;;;62.97;20.83;;;-3.70;81.50;;;;;;9173609;19;20251;-64
2022/12/13 05:13:50;;;;;;;61.45;22.30;;;-3.70;81.40;;;;;;9173542;19;20082;-66
2022/12/13 05:16:54;;;;;;;59.95;21.33;;;-3.70;81.50;;;;;;9169463;19;20364;-65
2022/12/13 05:19:58;;;;;;;56.30;21.35;;;-3.70;81.40;;;;;;9173473;19;20026;-66
2022/12/13 05:23:03;;;;;;;55.08;21.02;;;-3.70;81.40;;;;;;9171577;19;20030;-65
2022/12/13 05:26:07;;;;;;;55.60;21.45;;;-3.70;81.40;;;;;;9173212;19;20026;-66
2022/12/13 05:29:11;;;;;;;62.83;21.65;;;-3.70;81.40;;;;;;9174061;19;20021;-67
2022/12/13 05:32:15;;;;;;;52.13;19.83;;;-3.70;81.40;;;;;;9172752;19;20006;-67
2022/12/13 05:35:19;;;;;;;55.17;21.92;;;-3.80;81.40;;;;;;9173257;19;20018;-67
2022/12/13 05:38:29;;;;;;;54.00;20.80;;;-3.80;81.50;;;;;;9174204;19;20017;-66
2022/12/13 05:41:35;;;;;;;83.03;28.60;;;-3.80;81.40;;;;;;9173387;19;20019;-67
2022/12/13 05:44:38;;;;;;;70.65;27.75;;;-3.80;81.40;;;;;;9172495;19;20025;-66
2022/12/13 05:47:42;;;;;;;58.53;21.55;;;-3.80;81.40;;;;;;9173591;19;20328;-66
2022/12/13 05:50:46;;;;;;;54.90;21.10;;;-3.80;81.40;;;;;;9178591;19;20023;-67
2022/12/13 05:53:52;;;;;;;56.33;21.23;;;-3.80;81.40;;;;;;9176973;19;20022;-67
2022/12/13 05:56:56;;;;;;;53.20;21.48;;;-3.80;81.40;;;;;;9178919;19;20054;-67
2022/12/13 06:00:00;;;;;;;62.67;22.40;;;-3.80;81.40;;;;;;9181082;19;20030;-68
2022/12/13 06:03:04;;;;;;;66.22;23.00;;;-3.90;81.30;;;;;;9182129;19;20369;-66
2022/12/13 06:06:10;;;;;;;58.47;22.38;;;-3.90;81.30;;;;;;9181288;19;20035;-67
2022/12/13 06:09:16;;;;;;;54.58;20.48;;;-3.90;81.30;;;;;;9181607;19;20022;-66
2022/12/13 06:12:20;;;;;;;51.38;20.65;;;-3.90;81.40;;;;;;9179338;19;20833;-66
2022/12/13 06:15:35;;;;;;;59.20;24.25;;;-3.90;81.40;;;;;;9179561;19;20019;-67
2022/12/13 06:18:47;;;;;;;57.10;23.95;;;-3.90;81.30;;;;;;9180547;19;20019;-67
2022/12/13 06:21:56;;;;;;;60.97;22.02;;;-3.90;81.30;;;;;;9180246;19;20486;-66
2022/12/13 06:25:02;;;;;;;54.25;21.20;;;-3.90;81.40;;;;;;9180683;19;20036;-66
2022/12/13 06:28:06;;;;;;;48.28;21.25;;;-3.90;81.30;;;;;;9178785;19;20499;-66
2022/12/13 06:31:10;;;;;;;59.60;20.55;;;-3.90;81.30;;;;;;9179338;19;20026;-66
2022/12/13 06:34:14;;;;;;;57.35;21.40;;;-4.00;81.30;;;;;;9175969;19;20018;-66
2022/12/13 06:37:18;;;;;;;62.25;22.05;;;-4.00;81.30;;;;;;9172175;19;20366;-65
2022/12/13 06:40:24;;;;;;;60.45;22.98;;;-4.00;81.30;;;;;;9174167;19;20018;-67
2022/12/13 06:43:28;;;;;;;61.13;20.73;;;-4.00;81.30;;;;;;9165330;19;20014;-67
2022/12/13 06:46:32;;;;;;;58.05;20.85;;;-4.00;81.30;;;;;;9167820;19;20014;-66
2022/12/13 06:49:36;;;;;;;59.10;22.50;;;-4.00;81.30;;;;;;9171426;19;20405;-67
2022/12/13 06:52:39;;;;;;;57.28;21.42;;;-4.00;81.20;;;;;;9165731;19;20023;-66
2022/12/13 06:55:45;;;;;;;57.05;22.65;;;-4.00;81.30;;;;;;9169850;19;20046;-66
2022/12/13 06:58:49;;;;;;;71.25;23.00;;;-4.00;81.20;;;;;;9173635;19;20074;-68
2022/12/13 07:01:53;;;;;;;50.47;21.05;;;-4.00;81.30;;;;;;9172958;19;20029;-67
2022/12/13 07:05:07;;;;;;;54.35;21.33;;;-4.00;81.20;;;;;;9173460;19;20018;-66
2022/12/13 07:08:11;;;;;;;53.67;21.70;;;-4.10;81.20;;;;;;9171077;19;20019;-66
2022/12/13 07:11:19;;;;;;;60.90;23.35;;;-4.10;81.20;;;;;;9172206;19;20511;-68
2022/12/13 07:14:23;;;;;;;59.53;22.73;;;-4.10;81.20;;;;;;9179320;19;20022;-66
2022/12/13 07:17:27;;;;;;;67.35;23.48;;;-4.10;81.20;;;;;;9170996;19;20475;-66
2022/12/13 07:20:40;;;;;;;63.67;22.30;;;-4.10;81.20;;;;;;9169704;19;20050;-67
2022/12/13 07:23:43;;;;;;;53.70;22.55;;;-4.10;81.20;;;;;;9168433;19;20371;-66
2022/12/13 07:26:49;;;;;;;52.40;21.02;;;-4.10;81.20;;;;;;9168238;19;20018;-68
2022/12/13 07:29:53;;;;;;;59.45;22.77;;;-4.10;81.20;;;;;;9170871;19;20026;-67
2022/12/13 07:32:57;;;;;;;63.25;21.10;;;-4.00;81.30;;;;;;9170864;19;20046;-67
2022/12/13 07:36:05;;;;;;;55.30;21.30;;;-4.10;81.20;;;;;;9169764;19;20010;-66
2022/12/13 07:39:09;;;;;;;61.17;22.83;;;-4.10;81.20;;;;;;9169302;19;20025;-66
2022/12/13 07:42:15;;;;;;;54.97;21.85;;;-4.10;81.20;;;;;;9173608;19;20042;-67
2022/12/13 07:45:19;;;;;;;56.45;20.63;;;-4.10;81.20;;;;;;9173431;19;20719;-67
2022/12/13 07:48:23;;;;;;;64.10;21.88;;;-4.10;81.20;;;;;;9177915;19;20475;-67
2022/12/13 07:51:27;;;;;;;57.55;22.52;;;-4.10;81.20;;;;;;9174484;19;20022;-65
2022/12/13 07:54:31;;;;;;;54.63;21.27;;;-4.10;81.20;;;;;;9173700;19;20367;-67
2022/12/13 07:57:36;;;;;;;58.67;22.23;;;-4.10;81.30;;;;;;9177494;19;20006;-67
2022/12/13 08:00:43;;;;;;;54.70;23.17;;;-4.10;81.20;;;;;;9178085;19;20014;-68
2022/12/13 08:03:50;;;;;;;59.50;22.58;;;-4.10;81.30;;;;;;9178022;19;20026;-67
2022/12/13 08:06:53;;;;;;;62.13;20.77;;;-4.10;81.30;;;;;;9177314;19;20027;-67
2022/12/13 08:09:57;;;;;;;58.63;21.35;;;-4.10;81.20;;;;;;9175671;19;20050;-65
2022/12/13 08:13:05;;;;;;;55.70;21.67;;;-4.10;81.90;;;;;;9176194;19;20018;-66
2022/12/13 08:16:13;;;;;;;57.35;21.55;;;-4.10;81.30;;;;;;9174046;19;20038;-67
2022/12/13 08:19:32;;;;;;;57.75;21.23;;;-4.10;81.30;;;;;;9177572;19;20045;-64
2022/12/13 08:22:36;;;;;;;57.70;22.70;;;-4.10;81.30;;;;;;9173653;19;20002;-64
2022/12/13 08:25:39;;;;;;;65.80;22.13;;;-4.10;81.30;;;;;;9165860;19;20504;-66
2022/12/13 08:28:45;;;;;;;56.40;21.48;;;-4.10;81.30;;;;;;9169297;19;20025;-67
2022/12/13 08:31:49;;;;;;;56.47;21.20;;;-4.10;81.30;;;;;;9170703;19;20385;-66
2022/12/13 08:34:55;;;;;;;56.55;20.65;;;-4.00;81.40;;;;;;9164649;19;20026;-66
2022/12/13 08:37:59;;;;;;;54.83;21.40;;;-4.00;81.40;;;;;;9170162;19;20061;-66
2022/12/13 08:41:04;;;;;;;57.42;22.27;;;-4.00;81.40;;;;;;9170218;19;20030;-66
2022/12/13 08:44:10;;;;;;;54.80;19.67;;;-4.00;81.40;;;;;;9169888;19;20014;-67
2022/12/13 08:47:14;;;;;;;65.55;23.17;;;-3.90;81.40;;;;;;9174750;19;20033;-64
2022/12/13 08:50:28;;;;;;;59.22;21.58;;;-3.90;81.40;;;;;;9174238;19;20018;-65
2022/12/13 08:53:32;;;;;;;55.60;21.30;;;-3.90;81.50;;;;;;9165393;19;20018;-67
2022/12/13 08:56:44;;;;;;;52.65;22.15;;;-3.80;81.50;;;;;;9164299;19;20019;-67
2022/12/13 08:59:50;;;;;;;55.90;20.70;;;-3.80;81.50;;;;;;9167006;19;20023;-66
2022/12/13 09:02:58;;;;;;;64.15;23.05;;;-3.80;81.50;;;;;;9173070;19;20018;-66
2022/12/13 09:06:09;;;;;;;58.50;21.88;;;-3.70;81.60;;;;;;9171933;19;20018;-67
2022/12/13 09:09:13;;;;;;;55.38;23.63;;;-3.70;81.50;;;;;;9162354;19;20042;-67
2022/12/13 09:12:17;;;;;;;50.70;21.50;;;-3.70;81.50;;;;;;9161229;19;20014;-66
2022/12/13 09:15:40;;;;;;;47.10;20.27;;;-3.60;81.60;;;;;;9158591;19;20621;-65
2022/12/13 09:18:49;;;;;;;58.78;20.90;;;-3.60;81.60;;;;;;9157870;19;20494;-65
2022/12/13 09:21:58;;;;;;;49.55;21.92;;;-3.50;81.70;;;;;;9156512;19;20042;-66
2022/12/13 09:25:08;;;;;;;54.42;21.73;;;-3.50;81.60;;;;;;9160959;19;20052;-66
2022/12/13 09:28:19;;;;;;;58.22;23.30;;;-3.50;81.60;;;;;;9163669;19;20023;-64
2022/12/13 09:31:24;;;;;;;55.00;22.98;;;-3.50;81.60;;;;;;9166384;19;20082;-63
2022/12/13 09:34:28;;;;;;;58.42;23.40;;;-3.40;81.70;;;;;;9169720;19;20026;-66
2022/12/13 09:37:33;;;;;;;55.22;22.80;;;-3.40;81.80;;;;;;9169814;19;20018;-65
2022/12/13 09:40:39;;;;;;;57.00;23.27;;;-3.40;81.70;;;;;;9169540;19;20023;-65
2022/12/13 09:43:45;;;;;;;63.65;25.73;;;-3.30;81.90;;;;;;9168553;19;20090;-69
2022/12/13 09:46:53;;;;;;;61.00;22.13;;;-3.20;81.90;;;;;;9168446;19;20380;-67
2022/12/13 09:50:10;;;;;;;60.83;23.35;;;-3.20;81.90;;;;;;9173127;19;20010;-67
2022/12/13 09:53:20;;;;;;;54.20;23.50;;;-3.20;81.90;;;;;;9169610;19;20035;-65
2022/12/13 09:56:25;;;;;;;60.78;23.20;;;-3.10;81.90;;;;;;9167523;19;20046;-67
2022/12/13 09:59:32;;;;;;;56.15;23.88;;;-3.00;82.00;;;;;;9169730;19;20018;-66
2022/12/13 10:02:44;;;;;;;67.43;26.65;;;-3.00;82.00;;;;;;9170401;19;20038;-67
2022/12/13 10:05:57;;;;;;;64.22;25.80;;;-2.90;82.10;;;;;;9168483;19;20085;-65
2022/12/13 10:09:02;;;;;;;64.05;25.80;;;-2.80;82.10;;;;;;9168780;19;20047;-67
2022/12/13 10:12:06;;;;;;;72.85;28.90;;;-2.70;82.20;;;;;;9171270;19;20022;-67
2022/12/13 10:15:13;;;;;;;65.30;25.20;;;-2.60;82.40;;;;;;9166707;19;20113;-67
2022/12/13 10:18:34;;;;;;;64.82;26.33;;;-2.50;82.40;;;;;;9175712;19;20078;-67
2022/12/13 10:21:42;;;;;;;74.45;26.67;;;-2.40;82.40;;;;;;9172664;19;20111;-64
2022/12/13 10:24:51;;;;;;;66.88;27.42;;;-2.30;82.40;;;;;;9169327;19;20459;-65
2022/12/13 10:27:55;;;;;;;64.78;25.30;;;-2.10;82.50;;;;;;9163484;19;20021;-66
2022/12/13 10:31:00;;;;;;;56.60;24.80;;;-2.00;82.50;;;;;;9169394;19;20086;-65
2022/12/13 10:34:05;;;;;;;58.60;24.85;;;-1.90;82.50;;;;;;9166498;19;20025;-68
2022/12/13 10:37:27;;;;;;;58.97;24.52;;;-1.80;82.50;;;;;;9173152;19;20456;-65
2022/12/13 10:40:35;;;;;;;59.05;24.45;;;-1.80;82.40;;;;;;9170436;19;20018;-66
2022/12/13 10:43:41;;;;;;;63.45;25.40;;;-1.70;82.40;;;;;;9173432;19;20480;-65
2022/12/13 10:46:51;;;;;;;62.45;25.48;;;-1.60;82.40;;;;;;9175632;19;20479;-66
2022/12/13 10:50:00;;;;;;;64.68;25.23;;;-1.60;82.40;;;;;;9178330;19;20086;-66
2022/12/13 10:53:06;;;;;;;55.95;24.45;;;-1.50;82.40;;;;;;9169258;19;20052;-67
2022/12/13 10:56:12;;;;;;;60.38;23.88;;;-1.50;82.40;;;;;;9172633;19;20029;-67
2022/12/13 10:59:28;;;;;;;61.90;24.27;;;-1.40;82.40;;;;;;9175583;19;20085;-67
2022/12/13 11:02:35;;;;;;;60.03;24.92;;;-1.40;82.40;;;;;;9171731;19;20475;-68
2022/12/13 11:05:43;;;;;;;56.15;23.90;;;-1.40;82.40;;;;;;9175424;19;20081;-66
2022/12/13 11:08:46;;;;;;;58.70;24.17;;;-1.30;82.50;;;;;;9173552;19;20027;-68
2022/12/13 11:11:52;;;;;;;52.83;22.52;;;-1.30;82.50;;;;;;9172242;19;20360;-67
2022/12/13 11:15:05;;;;;;;48.90;22.05;;;-1.30;82.50;;;;;;9162935;19;20082;-67
2022/12/13 11:18:21;;;;;;;57.65;24.70;;;-1.20;82.50;;;;;;9168621;19;20031;-68
2022/12/13 11:21:31;;;;;;;58.50;23.90;;;-1.20;82.50;;;;;;9173992;19;20014;-67
2022/12/13 11:24:38;;;;;;;50.28;23.50;;;-1.10;82.60;;;;;;9162981;19;20018;-68
2022/12/13 11:27:59;;;;;;;62.70;22.25;;;-1.10;82.60;;;;;;9167655;19;20018;-67
2022/12/13 11:31:14;;;;;;;58.67;23.27;;;-1.00;82.60;;;;;;9170426;19;20487;-68
2022/12/13 11:34:27;;;;;;;55.22;24.05;;;-1.00;82.60;;;;;;9173526;19;20014;-68
2022/12/13 11:37:41;;;;;;;53.50;22.67;;;-1.00;82.60;;;;;;9167816;19;20090;-68
2022/12/13 11:40:47;;;;;;;;;;;-0.90;82.60;;;;;;9176694;19;20015;-65
2022/12/13 11:43:56;;;;;;;44.50;20.80;;;-0.90;82.70;;;;;;9169804;19;19926;-66
2022/12/13 11:47:01;;;;;;;61.30;23.13;;;-0.80;82.60;;;;;;9167990;19;20416;-67
2022/12/13 11:50:14;;;;;;;56.88;23.33;;;-0.80;82.70;;;;;;9160771;19;20029;-67
2022/12/13 11:53:46;;;;;;;51.65;22.58;;;-0.70;82.80;;;;;;9158838;19;20022;-67
2022/12/13 11:56:51;;;;;;;52.00;22.58;;;-0.70;82.80;;;;;;9169221;19;20022;-66
2022/12/13 12:00:10;;;;;;;50.63;22.08;;;-0.70;82.80;;;;;;9167996;19;20033;-66
2022/12/13 12:03:19;;;;;;;;;;;-0.60;82.80;;;;;;9167507;19;20067;-66
2022/12/13 12:06:29;;;;;;;50.88;21.05;;;-0.60;82.80;;;;;;9175904;19;19915;-68
2022/12/13 12:09:37;;;;;;;56.22;22.90;;;-0.60;82.70;;;;;;9168447;19;20031;-68
2022/12/13 12:12:44;;;;;;;50.47;22.15;;;-0.60;82.80;;;;;;9173371;19;20663;-68
2022/12/13 12:15:54;;;;;;;49.22;21.52;;;-0.50;82.80;;;;;;9172703;19;20019;-67
2022/12/13 12:18:58;;;;;;;45.40;20.67;;;-0.50;82.80;;;;;;9173587;19;20048;-69
2022/12/13 12:22:22;;;;;;;49.90;20.00;;;-0.50;82.80;;;;;;9176696;19;20434;-67
2022/12/13 12:25:40;;;;;;;50.45;20.48;;;-0.40;82.80;;;;;;9172293;19;20044;-67
2022/12/13 12:29:13;;;;;;;37.95;18.98;;;-0.40;82.80;;;;;;9174828;19;20018;-67
2022/12/13 12:32:32;;;;;;;55.90;22.30;;;-0.40;82.80;;;;;;9176041;19;20038;-67
2022/12/13 12:35:51;;;;;;;50.33;22.90;;;-0.40;82.80;;;;;;9173226;19;20015;-68
2022/12/13 12:39:28;;;;;;;47.50;21.08;;;-0.30;82.90;;;;;;9167046;19;20042;-67
2022/12/13 12:42:51;;;;;;;51.30;21.42;;;-0.30;82.90;;;;;;9170960;19;20007;-68
2022/12/13 12:46:39;;;;;;;53.28;21.08;;;-0.30;82.90;;;;;;9169739;19;20052;-67
2022/12/13 12:50:14;;;;;;;48.20;21.48;;;-0.20;82.90;;;;;;9166257;19;20025;-68
2022/12/13 12:53:40;;;;;;;45.33;21.10;;;-0.20;82.80;;;;;;9165343;19;20019;-65
2022/12/13 12:56:54;;;;;;;50.78;22.60;;;-0.20;82.90;;;;;;9165839;19;20433;-68
2022/12/13 13:00:05;;;;;;;51.83;22.30;;;-0.20;82.90;;;;;;9172039;19;20035;-66
2022/12/13 13:03:18;;;;;;;45.40;20.27;;;-0.10;82.90;;;;;;9177589;19;20017;-69
2022/12/13 13:06:31;;;;;;;50.53;20.67;;;-0.10;82.90;;;;;;9161535;19;20694;-67
2022/12/13 13:09:35;;;;;;;49.53;20.40;;;-0.10;82.90;;;;;;9178832;19;20026;-69
2022/12/13 13:12:42;;;;;;;59.33;22.60;;;-0.10;82.90;;;;;;9182973;19;20019;-67
2022/12/13 13:15:58;;;;;;;52.15;21.20;;;-0.10;82.80;;;;;;9176973;19;20018;-68
2022/12/13 13:19:03;;;;;;;45.53;20.80;;;0.00;82.90;;;;;;9172791;19;20028;-68
2022/12/13 13:22:29;;;;;;;43.42;21.85;;;0.00;82.90;;;;;;9174647;19;20382;-66
2022/12/13 13:25:36;;;;;;;47.63;20.83;;;0.00;82.90;;;;;;9165936;19;20022;-67
2022/12/13 13:29:32;;;;;;;44.97;20.65;;;0.00;83.50;;;;;;9172017;19;20038;-67
2022/12/13 13:32:40;;;;;;;47.55;21.65;;;0.00;82.80;;;;;;9172889;19;20385;-69
2022/12/13 13:35:49;;;;;;;46.72;20.40;;;0.00;82.80;;;;;;9180465;19;20014;-66
2022/12/13 13:38:55;;;;;;;45.58;21.70;;;0.10;82.90;;;;;;9179466;19;20026;-67
2022/12/13 13:42:19;;;;;;;45.70;21.27;;;0.00;82.80;;;;;;9179960;19;20127;-69
2022/12/13 13:45:25;;;;;;;47.10;21.08;;;0.10;82.90;;;;;;9180836;19;20015;-66
2022/12/13 13:48:51;;;;;;;52.65;21.20;;;0.10;82.90;;;;;;9179002;19;20022;-66
2022/12/13 13:52:11;;;;;;;48.38;21.17;;;0.10;82.80;;;;;;9176351;19;20134;-65
2022/12/13 13:55:55;;;;;;;44.90;20.55;;;0.10;82.80;;;;;;9171336;19;20019;-68
2022/12/13 13:59:37;;;;;;;44.00;19.63;;;0.10;82.90;;;;;;9175631;19;20017;-68
2022/12/13 14:03:34;;;;;;;43.33;20.63;;;0.10;82.80;;;;;;9179627;19;20015;-66
2022/12/13 14:07:11;;;;;;;48.28;21.50;;;0.10;82.80;;;;;;9168783;19;20014;-66
2022/12/13 14:10:40;;;;;;;48.35;20.23;;;0.10;82.80;;;;;;9158012;19;20022;-69
2022/12/13 14:14:17;;;;;;;46.72;22.40;;;0.10;82.80;;;;;;9159911;19;20015;-66
2022/12/13 14:17:55;;;;;;;48.28;21.73;;;0.10;82.80;;;;;;9169119;19;20447;-65
2022/12/13 14:21:09;;;;;;;46.05;21.05;;;0.10;82.80;;;;;;9168133;19;20105;-66
2022/12/13 14:24:21;;;;;;;52.78;21.30;;;0.10;82.70;;;;;;9168101;19;20471;-67
2022/12/13 14:27:43;;;;;;;46.78;20.42;;;0.00;82.80;;;;;;9162746;19;20476;-65
2022/12/13 14:30:47;;;;;;;54.05;21.27;;;0.00;82.70;;;;;;9158982;19;20029;-68
2022/12/13 14:34:02;;;;;;;51.95;22.42;;;0.00;82.80;;;;;;9162762;19;20105;-65
2022/12/13 14:37:19;;;;;;;48.38;20.90;;;0.00;82.80;;;;;;9169344;19;20039;-68
2022/12/13 14:40:30;;;;;;;43.47;19.60;;;0.00;82.80;;;;;;9170757;19;20025;-69
2022/12/13 14:43:36;;;;;;;51.20;19.98;;;-0.10;82.80;;;;;;9169279;19;20025;-68
2022/12/13 14:46:49;;;;;;;52.13;20.80;;;-0.10;82.70;;;;;;9168443;19;20014;-67
2022/12/13 14:49:56;;;;;;;45.15;20.15;;;-0.10;82.80;;;;;;9172583;19;20479;-68
2022/12/13 14:53:03;;;;;;;49.72;20.85;;;-0.10;82.80;;;;;;9164052;19;20022;-66
2022/12/13 14:56:09;;;;;;;44.70;19.13;;;-0.10;82.80;;;;;;9170468;19;20019;-68
2022/12/13 14:59:33;;;;;;;;;;;-0.20;82.80;;;;;;9172155;19;20025;-67
2022/12/13 15:02:37;;;;;;;51.53;20.38;;;-0.20;82.70;;;;;;9172988;19;19922;-69
2022/12/13 15:05:45;;;;;;;48.00;20.45;;;-0.30;83.30;;;;;;9173530;19;20641;-66
2022/12/13 15:08:54;;;;;;;46.00;20.80;;;-0.30;82.70;;;;;;9169805;19;20206;-69
2022/12/13 15:12:01;;;;;;;54.17;21.45;;;-0.30;82.70;;;;;;9173722;19;20018;-67
2022/12/13 15:15:32;;;;;;;53.83;22.00;;;-0.30;82.70;;;;;;9171990;19;20035;-68
2022/12/13 15:18:35;;;;;;;44.83;20.15;;;-0.40;82.70;;;;;;9173330;19;20074;-66
2022/12/13 15:21:42;;;;;;;44.38;20.67;;;-0.40;82.70;;;;;;9167261;19;20018;-66
2022/12/13 15:24:56;;;;;;;43.25;20.35;;;-0.50;82.70;;;;;;9172714;19;20010;-67
2022/12/13 15:28:08;;;;;;;41.97;19.80;;;-0.50;82.70;;;;;;9164648;19;20580;-67
2022/12/13 15:31:15;;;;;;;44.50;18.90;;;-0.50;82.70;;;;;;9170938;19;20082;-67
2022/12/13 15:34:24;;;;;;;49.35;19.70;;;-0.50;82.70;;;;;;9173034;19;20019;-65
2022/12/13 15:37:34;;;;;;;42.17;18.63;;;-0.60;82.70;;;;;;9168704;19;20590;-66
2022/12/13 15:40:38;;;;;;;47.35;20.83;;;-0.60;82.70;;;;;;9173263;19;20033;-67
2022/12/13 15:43:45;;;;;;;49.53;18.58;;;-0.70;82.70;;;;;;9172025;19;20015;-67
2022/12/13 15:46:53;;;;;;;45.25;18.92;;;-0.70;82.70;;;;;;9170967;19;20132;-67
2022/12/13 15:49:58;;;;;;;43.92;19.00;;;-0.70;82.70;;;;;;9172566;19;20018;-66
2022/12/13 15:53:07;;;;;;;48.85;19.27;;;-0.70;82.80;;;;;;9165511;19;20025;-67
2022/12/13 15:56:30;;;;;;;47.85;19.92;;;-0.70;82.80;;;;;;9162221;19;20022;-67
2022/12/13 15:59:36;;;;;;;46.17;19.70;;;-0.80;82.70;;;;;;9164334;19;20014;-66
2022/12/13 16:02:52;;;;;;;42.95;19.98;;;-0.80;82.70;;;;;;9164097;19;20041;-67
2022/12/13 16:05:58;;;;;;;42.35;18.17;;;-0.80;82.70;;;;;;9161923;19;20064;-67
2022/12/13 16:09:06;;;;;;;47.40;20.55;;;-0.80;82.70;;;;;;9161355;19;20022;-66